Time;durP1;ratioP1;P1;durP2;ratioP2;P2;SDS_P1;SDS_P2;PMS_P1;PMS_P2;Temp;Humidity;BMP_temperature;BMP_pressure;BME280_temperature;BME280_humidity;BME280_pressure;Samples;Min_cycle;Max_cycle;Signal;HPM_P1;HPM_P2
2021/11/07 00:04:24;;;;;;;2.92;2.05;;;;;;;;;;5120898;28;20023;-59
2021/11/07 00:11:43;;;;;;;2.72;2.25;;;;;;;;;;5126310;27;20015;-59
2021/11/07 00:14:11;;;;;;;2.00;1.77;;;;;;;;;;5127003;27;20051;-59
2021/11/07 00:16:39;;;;;;;2.50;1.92;;;;;;;;;;5125303;27;20015;-58
2021/11/07 00:21:39;;;;;;;2.13;1.55;;;;;;;;;;5126898;27;20023;-59
2021/11/07 00:24:10;;;;;;;2.03;1.52;;;;;;;;;;5137384;27;20067;-59
2021/11/07 00:29:16;;;;;;;2.60;2.03;;;;;;;;;;5136521;27;20031;-63
2021/11/07 00:37:11;;;;;;;1.63;1.52;;;;;;;;;;5137256;27;20047;-62
2021/11/07 00:39:48;;;;;;;2.55;2.00;;;;;;;;;;5137097;27;20102;-61
2021/11/07 00:42:34;;;;;;;1.77;1.40;;;;;;;;;;5136530;27;20027;-62
2021/11/07 00:45:06;;;;;;;1.90;1.70;;;;;;;;;;5137004;27;20042;-62
2021/11/07 00:47:42;;;;;;;2.28;2.08;;;;;;;;;;5136367;27;20118;-62
2021/11/07 00:50:11;;;;;;;1.77;1.60;;;;;;;;;;5136772;27;20102;-62
2021/11/07 00:52:50;;;;;;;3.35;1.58;;;;;;;;;;5136655;27;20337;-62
2021/11/07 00:55:41;;;;;;;1.80;1.60;;;;;;;;;;5136016;27;20360;-62
2021/11/07 00:58:11;;;;;;;2.10;1.75;;;;;;;;;;5136825;27;20027;-62
2021/11/07 01:00:47;;;;;;;2.63;2.00;;;;;;;;;;5136402;27;20024;-62
2021/11/07 01:03:16;;;;;;;1.75;1.63;;;;;;;;;;5136964;27;20053;-62
2021/11/07 01:05:42;;;;;;;2.28;1.70;;;;;;;;;;5136460;27;20452;-62
2021/11/07 01:08:08;;;;;;;3.38;1.52;;;;;;;;;;5136295;27;20470;-62
2021/11/07 01:10:35;;;;;;;2.35;1.73;;;;;;;;;;5135533;27;20023;-62
2021/11/07 01:13:01;;;;;;;2.22;1.63;;;;;;;;;;5136458;27;20015;-62
2021/11/07 01:15:28;;;;;;;1.92;1.50;;;;;;;;;;5135629;27;20026;-62
2021/11/07 01:17:55;;;;;;;2.45;1.38;;;;;;;;;;5136323;27;20023;-61
2021/11/07 01:20:24;;;;;;;3.00;1.70;;;;;;;;;;5135323;27;20015;-62
2021/11/07 01:23:14;;;;;;;2.22;1.73;;;;;;;;;;5120727;27;20016;-62
2021/11/07 01:25:44;;;;;;;1.63;1.50;;;;;;;;;;5115457;28;20024;-61
2021/11/07 01:28:11;;;;;;;2.17;1.75;;;;;;;;;;5115536;28;20034;-61
2021/11/07 01:30:48;;;;;;;2.05;1.50;;;;;;;;;;5114832;28;20019;-61
2021/11/07 01:33:20;;;;;;;2.00;1.42;;;;;;;;;;5114977;28;20611;-62
2021/11/07 01:38:15;;;;;;;2.22;1.45;;;;;;;;;;5114991;28;20118;-62
2021/11/07 01:41:00;;;;;;;1.80;1.60;;;;;;;;;;5115227;28;20011;-62
2021/11/07 01:43:27;;;;;;;2.30;1.60;;;;;;;;;;5114759;28;20016;-61
2021/11/07 01:46:12;;;;;;;2.28;1.60;;;;;;;;;;5115130;28;20062;-61
2021/11/07 01:48:51;;;;;;;1.63;1.30;;;;;;;;;;5114875;28;20376;-62
2021/11/07 01:51:17;;;;;;;1.92;1.45;;;;;;;;;;5114367;28;20016;-62
2021/11/07 01:53:45;;;;;;;1.80;1.58;;;;;;;;;;5114817;28;20030;-62
2021/11/07 01:56:12;;;;;;;3.03;1.90;;;;;;;;;;5114622;28;20020;-62
2021/11/07 01:58:39;;;;;;;2.30;1.48;;;;;;;;;;5114302;28;20024;-62
2021/11/07 02:01:06;;;;;;;1.63;1.52;;;;;;;;;;5114962;28;20016;-61
2021/11/07 02:03:32;;;;;;;2.13;1.40;;;;;;;;;;5113988;28;20016;-62
2021/11/07 02:05:59;;;;;;;2.50;1.80;;;;;;;;;;5114320;28;20027;-62
2021/11/07 02:08:26;;;;;;;1.73;1.48;;;;;;;;;;5113701;28;20391;-62
2021/11/07 02:10:53;;;;;;;1.67;1.45;;;;;;;;;;5115011;28;20466;-61
2021/11/07 02:13:20;;;;;;;1.63;1.52;;;;;;;;;;5114014;28;20023;-62
2021/11/07 02:15:46;;;;;;;2.30;1.40;;;;;;;;;;5114530;28;20096;-62
2021/11/07 02:18:12;;;;;;;1.60;1.48;;;;;;;;;;5114551;28;20015;-62
2021/11/07 02:20:40;;;;;;;1.83;1.50;;;;;;;;;;5113868;28;20069;-62
2021/11/07 02:23:07;;;;;;;1.70;1.40;;;;;;;;;;5130918;27;20053;-62
2021/11/07 02:25:35;;;;;;;1.60;1.40;;;;;;;;;;5134441;27;20037;-62
2021/11/07 02:28:02;;;;;;;1.50;1.38;;;;;;;;;;5134515;27;20431;-62
2021/11/07 02:30:30;;;;;;;1.48;1.10;;;;;;;;;;5134306;27;20500;-62
2021/11/07 02:32:58;;;;;;;1.73;1.38;;;;;;;;;;5134585;27;20100;-62
2021/11/07 02:35:26;;;;;;;3.65;1.40;;;;;;;;;;5134256;27;20038;-61
2021/11/07 02:37:52;;;;;;;1.30;1.17;;;;;;;;;;5134595;27;20030;-62
2021/11/07 02:40:19;;;;;;;2.08;1.33;;;;;;;;;;5134123;27;20039;-62
2021/11/07 02:42:46;;;;;;;1.52;1.40;;;;;;;;;;5134652;27;20031;-61
2021/11/07 02:45:12;;;;;;;2.25;1.50;;;;;;;;;;5134612;27;20011;-62
2021/11/07 02:47:39;;;;;;;1.70;1.33;;;;;;;;;;5133548;27;20027;-62
2021/11/07 02:50:05;;;;;;;2.05;1.80;;;;;;;;;;5134431;27;20015;-62
2021/11/07 02:52:32;;;;;;;1.42;1.30;;;;;;;;;;5133548;27;20026;-62
2021/11/07 02:54:58;;;;;;;1.55;1.45;;;;;;;;;;5134246;27;20030;-62
2021/11/07 02:57:24;;;;;;;2.08;1.38;;;;;;;;;;5133293;27;20023;-61
2021/11/07 02:59:57;;;;;;;1.85;1.50;;;;;;;;;;5134339;27;20019;-62
2021/11/07 03:02:24;;;;;;;1.33;1.13;;;;;;;;;;5133650;27;20026;-62
2021/11/07 03:04:50;;;;;;;1.45;1.13;;;;;;;;;;5134312;27;20016;-62
2021/11/07 03:07:16;;;;;;;1.70;1.30;;;;;;;;;;5134167;27;20110;-62
2021/11/07 03:09:42;;;;;;;1.65;1.27;;;;;;;;;;5133785;27;20356;-62
2021/11/07 03:12:09;;;;;;;1.75;1.40;;;;;;;;;;5133635;27;20471;-62
2021/11/07 03:14:37;;;;;;;1.45;1.15;;;;;;;;;;5133484;27;20015;-62
2021/11/07 03:17:04;;;;;;;1.73;1.25;;;;;;;;;;5133822;27;20019;-62
2021/11/07 03:19:31;;;;;;;1.50;1.20;;;;;;;;;;5133309;27;20046;-62
2021/11/07 03:21:58;;;;;;;2.05;1.77;;;;;;;;;;5126875;27;20098;-62
2021/11/07 03:24:25;;;;;;;1.95;1.30;;;;;;;;;;5112555;28;20460;-62
2021/11/07 03:26:52;;;;;;;1.80;1.50;;;;;;;;;;5112734;28;20032;-61
2021/11/07 03:29:20;;;;;;;1.38;1.27;;;;;;;;;;5112813;28;20016;-62
2021/11/07 03:31:53;;;;;;;1.42;1.27;;;;;;;;;;5113264;28;20012;-61
2021/11/07 03:34:28;;;;;;;1.50;1.23;;;;;;;;;;5112710;28;20024;-62
2021/11/07 03:36:56;;;;;;;2.63;1.40;;;;;;;;;;5113416;28;20368;-61
2021/11/07 03:39:22;;;;;;;2.33;1.30;;;;;;;;;;5112453;28;20030;-62
2021/11/07 03:41:48;;;;;;;1.52;1.33;;;;;;;;;;5113252;28;20019;-61
2021/11/07 03:44:15;;;;;;;1.70;1.60;;;;;;;;;;5112643;28;20096;-62
2021/11/07 03:46:42;;;;;;;1.50;1.40;;;;;;;;;;5112149;28;20346;-62
2021/11/07 03:49:09;;;;;;;1.40;1.10;;;;;;;;;;5112916;28;20110;-62
2021/11/07 03:51:36;;;;;;;1.88;1.45;;;;;;;;;;5112148;28;20441;-62
2021/11/07 03:54:03;;;;;;;1.63;1.50;;;;;;;;;;5112855;28;20046;-62
2021/11/07 03:56:29;;;;;;;1.50;1.27;;;;;;;;;;5112467;28;20057;-62
2021/11/07 03:58:55;;;;;;;2.15;1.45;;;;;;;;;;5112719;28;20024;-62
2021/11/07 04:01:22;;;;;;;2.20;1.98;;;;;;;;;;5112318;28;20432;-62
2021/11/07 04:03:48;;;;;;;1.63;1.25;;;;;;;;;;5112363;28;20452;-61
2021/11/07 04:06:14;;;;;;;1.98;1.30;;;;;;;;;;5112459;28;20480;-62
2021/11/07 04:08:41;;;;;;;1.30;1.05;;;;;;;;;;5112146;28;20019;-62
2021/11/07 04:11:07;;;;;;;1.30;1.20;;;;;;;;;;5112626;28;20072;-62
2021/11/07 04:13:36;;;;;;;1.60;1.50;;;;;;;;;;5112091;28;20023;-62
2021/11/07 04:16:02;;;;;;;1.58;1.30;;;;;;;;;;5112738;28;20015;-62
2021/11/07 04:18:28;;;;;;;1.75;1.23;;;;;;;;;;5111801;28;20149;-61
2021/11/07 04:20:54;;;;;;;1.48;1.05;;;;;;;;;;5112746;28;20024;-62
2021/11/07 04:23:20;;;;;;;1.88;1.30;;;;;;;;;;5111705;28;20028;-62
2021/11/07 04:25:46;;;;;;;2.78;1.60;;;;;;;;;;5112711;28;20057;-62
2021/11/07 04:28:12;;;;;;;1.30;1.02;;;;;;;;;;5112448;28;20032;-62
2021/11/07 04:30:38;;;;;;;1.33;1.10;;;;;;;;;;5112108;28;20402;-62
2021/11/07 04:33:04;;;;;;;2.35;1.40;;;;;;;;;;5112838;28;20024;-62
2021/11/07 04:35:30;;;;;;;2.08;1.60;;;;;;;;;;5111807;28;20524;-62
2021/11/07 04:37:56;;;;;;;1.80;1.30;;;;;;;;;;5112235;28;20023;-62
2021/11/07 04:40:25;;;;;;;1.42;1.25;;;;;;;;;;5111716;28;20489;-62
2021/11/07 04:42:51;;;;;;;1.30;1.20;;;;;;;;;;5094406;28;20407;-62
2021/11/07 04:45:17;;;;;;;2.42;1.48;;;;;;;;;;5112495;28;20069;-62
2021/11/07 04:47:44;;;;;;;1.63;1.08;;;;;;;;;;5112119;28;20356;-61
2021/11/07 04:50:11;;;;;;;1.58;1.30;;;;;;;;;;5112060;28;20020;-62
2021/11/07 04:52:37;;;;;;;2.50;1.10;;;;;;;;;;5111799;28;20028;-62
2021/11/07 04:55:03;;;;;;;2.17;1.63;;;;;;;;;;5112303;28;20023;-62
2021/11/07 04:57:30;;;;;;;1.75;1.25;;;;;;;;;;5115412;28;20361;-62
2021/11/07 04:59:56;;;;;;;2.20;1.35;;;;;;;;;;5116118;28;20096;-62
2021/11/07 05:02:22;;;;;;;1.48;1.27;;;;;;;;;;5115631;28;20073;-62
2021/11/07 05:04:53;;;;;;;2.22;1.30;;;;;;;;;;5115989;28;20042;-62
2021/11/07 05:07:19;;;;;;;1.60;1.27;;;;;;;;;;5115992;28;20051;-62
2021/11/07 05:09:45;;;;;;;1.73;1.35;;;;;;;;;;5115630;28;20417;-62
2021/11/07 05:12:11;;;;;;;1.65;1.55;;;;;;;;;;5115684;28;20345;-62
2021/11/07 05:14:37;;;;;;;1.48;1.27;;;;;;;;;;5115242;28;20031;-62
2021/11/07 05:17:04;;;;;;;1.63;1.48;;;;;;;;;;5115717;28;20027;-61
2021/11/07 05:19:30;;;;;;;1.42;1.33;;;;;;;;;;5115088;28;20095;-61
2021/11/07 05:21:56;;;;;;;1.33;1.23;;;;;;;;;;5122291;27;20015;-62
2021/11/07 05:24:22;;;;;;;1.38;1.27;;;;;;;;;;5135452;27;20079;-62
2021/11/07 05:26:48;;;;;;;1.48;1.30;;;;;;;;;;5135680;27;20023;-62
2021/11/07 05:29:14;;;;;;;2.03;1.80;;;;;;;;;;5136162;27;20471;-62
2021/11/07 05:31:40;;;;;;;1.80;1.23;;;;;;;;;;5135385;27;20023;-61
2021/11/07 05:34:06;;;;;;;2.63;1.90;;;;;;;;;;5135848;27;20020;-61
2021/11/07 05:36:33;;;;;;;1.83;1.42;;;;;;;;;;5134951;27;20382;-61
2021/11/07 05:38:59;;;;;;;1.63;1.50;;;;;;;;;;5135917;27;20058;-62
2021/11/07 05:41:25;;;;;;;1.70;1.42;;;;;;;;;;5135676;27;20019;-61
2021/11/07 05:43:51;;;;;;;1.88;1.40;;;;;;;;;;5135641;27;20064;-61
2021/11/07 05:46:17;;;;;;;1.60;1.20;;;;;;;;;;5135776;27;20024;-61
2021/11/07 05:48:43;;;;;;;1.55;1.33;;;;;;;;;;5134966;27;20159;-62
2021/11/07 05:51:11;;;;;;;1.58;1.35;;;;;;;;;;5135427;27;20098;-61
2021/11/07 05:53:37;;;;;;;2.72;1.67;;;;;;;;;;5135079;27;20020;-61
2021/11/07 05:56:03;;;;;;;1.67;1.45;;;;;;;;;;5135309;27;20033;-61
2021/11/07 05:58:29;;;;;;;1.40;1.10;;;;;;;;;;5134807;27;20103;-61
2021/11/07 06:00:56;;;;;;;1.85;1.55;;;;;;;;;;5135486;27;20105;-62
2021/11/07 06:03:23;;;;;;;2.63;1.75;;;;;;;;;;5135934;27;20068;-62
2021/11/07 06:05:49;;;;;;;1.30;1.20;;;;;;;;;;5135277;27;20043;-62
2021/11/07 06:08:15;;;;;;;1.50;1.40;;;;;;;;;;5134645;27;20059;-61
2021/11/07 06:10:41;;;;;;;3.13;1.50;;;;;;;;;;5134654;27;20453;-62
2021/11/07 06:13:07;;;;;;;1.38;1.20;;;;;;;;;;5135166;27;20512;-62
2021/11/07 06:15:33;;;;;;;1.90;1.50;;;;;;;;;;5134638;27;20023;-62
2021/11/07 06:17:59;;;;;;;2.90;1.40;;;;;;;;;;5135209;27;20023;-61
2021/11/07 06:20:25;;;;;;;1.38;1.15;;;;;;;;;;5134471;27;20019;-62
2021/11/07 06:22:52;;;;;;;1.50;1.40;;;;;;;;;;5120590;27;20016;-62
2021/11/07 06:25:18;;;;;;;1.75;1.38;;;;;;;;;;5114551;28;20037;-62
2021/11/07 06:27:44;;;;;;;1.40;1.20;;;;;;;;;;5113692;28;20032;-61
2021/11/07 06:30:11;;;;;;;1.58;1.35;;;;;;;;;;5114205;28;20020;-62
2021/11/07 06:32:38;;;;;;;1.25;1.15;;;;;;;;;;5113750;28;20057;-61
2021/11/07 06:35:05;;;;;;;2.75;1.95;;;;;;;;;;5113873;28;20020;-61
2021/11/07 06:37:31;;;;;;;1.77;1.40;;;;;;;;;;5113781;28;20027;-61
2021/11/07 06:39:57;;;;;;;1.55;1.00;;;;;;;;;;5114200;28;20028;-60
2021/11/07 06:42:24;;;;;;;1.55;1.17;;;;;;;;;;5118475;27;20019;-60
2021/11/07 06:44:50;;;;;;;1.33;1.23;;;;;;;;;;5121659;27;20471;-60
2021/11/07 06:47:17;;;;;;;2.30;1.38;;;;;;;;;;5122788;27;20115;-59
2021/11/07 06:49:43;;;;;;;1.70;1.48;;;;;;;;;;5123697;27;20023;-60
2021/11/07 06:52:09;;;;;;;2.35;1.27;;;;;;;;;;5121991;27;20012;-59
2021/11/07 06:54:35;;;;;;;1.63;1.20;;;;;;;;;;5120845;27;20416;-60
2021/11/07 06:57:01;;;;;;;1.10;1.00;;;;;;;;;;5123018;27;20067;-60
2021/11/07 06:59:28;;;;;;;2.70;1.23;;;;;;;;;;5102789;27;20020;-61
2021/11/07 07:01:54;;;;;;;1.90;1.40;;;;;;;;;;5121987;27;20390;-60
2021/11/07 07:04:20;;;;;;;1.77;1.13;;;;;;;;;;5123417;27;20027;-60
2021/11/07 07:06:46;;;;;;;3.42;1.50;;;;;;;;;;5120298;27;20023;-60
2021/11/07 07:09:15;;;;;;;2.83;1.30;;;;;;;;;;5122126;27;20023;-60
2021/11/07 07:11:47;;;;;;;2.65;1.30;;;;;;;;;;5122321;27;20497;-59
2021/11/07 07:14:27;;;;;;;2.20;1.50;;;;;;;;;;5122184;27;20015;-60
2021/11/07 07:17:13;;;;;;;2.10;1.30;;;;;;;;;;5122277;27;20054;-60
2021/11/07 07:30:06;;;;;;;2.03;1.35;;;;;;;;;;5122030;27;20042;-60
2021/11/07 07:35:34;;;;;;;1.02;0.90;;;;;;;;;;5057128;28;20131;-60
2021/11/07 07:38:00;;;;;;;1.42;1.33;;;;;;;;;;5108218;27;20075;-62
2021/11/07 07:40:28;;;;;;;2.15;1.40;;;;;;;;;;5115016;27;20018;-65
2021/11/07 07:42:55;;;;;;;1.73;1.20;;;;;;;;;;5122662;27;20142;-61
2021/11/07 07:45:22;;;;;;;2.17;1.63;;;;;;;;;;5121587;27;20068;-60
2021/11/07 07:47:48;;;;;;;1.88;1.38;;;;;;;;;;5120020;27;20068;-61
2021/11/07 07:50:16;;;;;;;1.42;1.23;;;;;;;;;;5120559;27;20015;-60
2021/11/07 07:52:43;;;;;;;2.20;1.20;;;;;;;;;;5120516;27;20050;-60
2021/11/07 07:55:10;;;;;;;1.80;1.48;;;;;;;;;;5122411;27;20084;-60
2021/11/07 07:57:36;;;;;;;3.05;1.13;;;;;;;;;;5120003;27;20072;-61
2021/11/07 08:00:06;;;;;;;1.40;1.30;;;;;;;;;;5121489;28;20127;-60
2021/11/07 08:02:33;;;;;;;1.67;1.30;;;;;;;;;;5121578;28;20047;-60
2021/11/07 08:04:59;;;;;;;1.50;1.23;;;;;;;;;;5120798;28;20015;-61
2021/11/07 08:07:32;;;;;;;1.30;1.20;;;;;;;;;;5120460;28;20023;-61
2021/11/07 08:09:58;;;;;;;1.70;1.38;;;;;;;;;;5122041;28;20027;-60
2021/11/07 08:12:24;;;;;;;1.73;1.45;;;;;;;;;;5121362;28;20019;-60
2021/11/07 08:14:51;;;;;;;2.70;1.27;;;;;;;;;;5119470;28;20448;-61
2021/11/07 08:17:17;;;;;;;1.58;1.10;;;;;;;;;;5103283;28;20423;-59
2021/11/07 08:19:45;;;;;;;2.95;1.20;;;;;;;;;;5120377;28;20448;-65
2021/11/07 08:22:11;;;;;;;2.25;1.23;;;;;;;;;;5116591;28;20015;-64
2021/11/07 08:24:38;;;;;;;2.25;1.35;;;;;;;;;;5119857;28;20098;-69
2021/11/07 08:27:05;;;;;;;2.45;1.10;;;;;;;;;;5102039;28;20413;-57
2021/11/07 08:29:31;;;;;;;4.22;1.15;;;;;;;;;;5121101;28;20119;-59
2021/11/07 08:31:58;;;;;;;2.22;1.38;;;;;;;;;;5123767;27;20398;-60
2021/11/07 08:34:27;;;;;;;2.25;1.30;;;;;;;;;;5124423;27;20027;-60
2021/11/07 08:37:01;;;;;;;5.28;1.30;;;;;;;;;;5123817;27;20067;-59
2021/11/07 08:39:41;;;;;;;4.22;1.50;;;;;;;;;;5123890;27;20368;-59
2021/11/07 08:42:18;;;;;;;2.72;1.35;;;;;;;;;;5108670;27;20382;-58
2021/11/07 09:01:25;;;;;;;1.70;1.25;;;;;;;;;;5123922;27;20088;-59
2021/11/07 09:03:57;;;;;;;3.78;1.23;;;;;;;;;;5123535;27;20830;-59
2021/11/07 09:06:36;;;;;;;2.97;1.42;;;;;;;;;;5125044;27;20040;-61
2021/11/07 09:09:09;;;;;;;1.98;1.20;;;;;;;;;;5124968;27;20065;-59
2021/11/07 09:11:36;;;;;;;2.90;1.50;;;;;;;;;;5122115;27;20063;-59
2021/11/07 09:14:02;;;;;;;1.15;0.98;;;;;;;;;;5124767;27;20022;-58
2021/11/07 09:16:28;;;;;;;2.10;1.10;;;;;;;;;;5122504;27;20027;-59
2021/11/07 09:18:58;;;;;;;1.65;1.30;;;;;;;;;;5121207;27;20024;-60
2021/11/07 09:21:28;;;;;;;2.67;1.17;;;;;;;;;;5103436;28;20019;-59
2021/11/07 09:24:02;;;;;;;3.85;1.05;;;;;;;;;;5118475;27;20023;-60
2021/11/07 09:29:00;;;;;;;1.10;0.93;;;;;;;;;;5119752;27;20027;-61
2021/11/07 09:36:30;;;;;;;3.38;1.00;;;;;;;;;;5122182;27;20459;-60
2021/11/07 09:41:33;;;;;;;0.80;0.80;;;;;;;;;;5121155;27;20042;-61
2021/11/07 09:46:40;;;;;;;1.65;1.13;;;;;;;;;;5122417;27;20080;-59
2021/11/07 09:49:30;;;;;;;2.75;0.90;;;;;;;;;;5106186;27;20435;-59
2021/11/07 09:52:07;;;;;;;3.25;1.05;;;;;;;;;;5123834;27;20020;-59
2021/11/07 09:54:33;;;;;;;4.38;1.02;;;;;;;;;;5120422;27;20019;-59
2021/11/07 09:57:00;;;;;;;1.90;1.02;;;;;;;;;;5124261;27;20352;-57
2021/11/07 09:59:30;;;;;;;1.33;0.90;;;;;;;;;;5122140;27;20126;-57
2021/11/07 10:02:03;;;;;;;2.95;0.93;;;;;;;;;;5121673;27;20461;-59
2021/11/07 10:04:32;;;;;;;1.30;0.82;;;;;;;;;;5121511;27;20023;-59
2021/11/07 10:07:18;;;;;;;3.30;1.10;;;;;;;;;;5123398;27;20038;-61
2021/11/07 10:09:45;;;;;;;2.83;1.15;;;;;;;;;;5116658;27;20546;-60
2021/11/07 10:12:15;;;;;;;5.35;1.20;;;;;;;;;;5114131;28;20358;-58
2021/11/07 10:14:45;;;;;;;1.85;1.10;;;;;;;;;;5113589;28;20023;-58
2021/11/07 10:17:30;;;;;;;1.83;1.13;;;;;;;;;;5131868;27;20023;-58
2021/11/07 10:20:02;;;;;;;0.90;0.65;;;;;;;;;;5102359;27;20027;-58
2021/11/07 10:22:31;;;;;;;2.53;1.33;;;;;;;;;;5123249;27;20022;-59
2021/11/07 10:24:58;;;;;;;2.78;0.82;;;;;;;;;;5123447;27;20024;-58
2021/11/07 10:27:25;;;;;;;2.58;1.00;;;;;;;;;;5135008;27;20467;-56
2021/11/07 10:30:04;;;;;;;0.98;0.80;;;;;;;;;;5134978;27;20071;-55
2021/11/07 10:32:41;;;;;;;1.38;0.88;;;;;;;;;;5134340;27;20072;-52
2021/11/07 10:38:27;;;;;;;2.83;0.85;;;;;;;;;;5134609;27;20038;-63
2021/11/07 10:41:07;;;;;;;1.50;1.00;;;;;;;;;;5134740;27;20050;-58
2021/11/07 10:46:38;;;;;;;5.47;1.45;;;;;;;;;;5134696;27;20023;-60
2021/11/07 10:52:11;;;;;;;4.72;1.45;;;;;;;;;;5134217;27;20410;-60
2021/11/07 10:54:41;;;;;;;9.13;1.67;;;;;;;;;;5125186;27;20024;-61
2021/11/07 10:57:28;;;;;;;2.80;1.63;;;;;;;;;;5114050;28;20035;-59
2021/11/07 11:00:12;;;;;;;7.45;1.77;;;;;;;;;;5113527;28;20051;-59
2021/11/07 11:03:08;;;;;;;4.32;1.80;;;;;;;;;;5113207;28;20016;-59
2021/11/07 11:05:40;;;;;;;5.82;1.40;;;;;;;;;;5095124;28;20035;-59
2021/11/07 11:08:13;;;;;;;3.72;1.13;;;;;;;;;;5113562;28;20054;-61
2021/11/07 11:10:51;;;;;;;3.28;1.00;;;;;;;;;;5113077;28;20023;-61
2021/11/07 11:16:17;;;;;;;8.93;1.20;;;;;;;;;;5113576;28;20401;-59
2021/11/07 11:27:15;;;;;;;4.72;1.10;;;;;;;;;;5134571;27;20037;-69
2021/11/07 11:34:58;;;;;;;3.08;1.23;;;;;;;;;;5132976;27;20114;-70
2021/11/07 11:37:32;;;;;;;3.42;1.33;;;;;;;;;;5133659;27;20076;-63
2021/11/07 11:42:34;;;;;;;2.80;1.30;;;;;;;;;;5133732;27;20102;-63
2021/11/07 11:45:01;;;;;;;6.70;1.25;;;;;;;;;;5133554;27;20371;-63
2021/11/07 11:47:33;;;;;;;7.75;1.42;;;;;;;;;;5133362;27;20023;-61
2021/11/07 11:55:19;;;;;;;49.70;2.88;;;;;;;;;;5112139;28;20020;-60
2021/11/07 11:58:32;;;;;;;3.20;1.13;;;;;;;;;;5111488;28;20471;-61
2021/11/07 12:00:52;;;;;;;4.40;1.38;;;;;;;;;;5100381;28;20027;-65
2021/11/07 12:04:15;;;;;;;8.60;2.28;;;;;;;;;;5112517;28;20399;-60
2021/11/07 12:06:34;;;;;;;5.38;1.23;;;;;;;;;;5113020;28;20028;-66
2021/11/07 12:09:20;;;;;;;5.00;1.38;;;;;;;;;;5119079;28;20045;-61
2021/11/07 12:11:53;;;;;;;9.43;1.85;;;;;;;;;;5118118;28;20024;-59
2021/11/07 12:14:48;;;;;;;4.50;1.15;;;;;;;;;;5119602;28;20012;-59
2021/11/07 12:17:08;;;;;;;5.30;1.25;;;;;;;;;;5118167;28;20029;-59
2021/11/07 12:19:45;;;;;;;4.75;0.95;;;;;;;;;;5118227;28;20050;-59
2021/11/07 12:22:11;;;;;;;4.63;1.05;;;;;;;;;;5127757;27;20007;-61
2021/11/07 12:24:54;;;;;;;5.35;1.10;;;;;;;;;;5119438;27;20084;-56
2021/11/07 12:27:26;;;;;;;6.25;1.55;;;;;;;;;;5119143;28;20065;-56
2021/11/07 12:29:57;;;;;;;5.47;1.20;;;;;;;;;;5118284;28;20525;-56
2021/11/07 12:32:25;;;;;;;6.10;1.38;;;;;;;;;;5119106;28;20020;-58
2021/11/07 12:35:08;;;;;;;3.30;0.90;;;;;;;;;;5117891;28;20098;-57
2021/11/07 12:40:35;;;;;;;2.20;1.13;;;;;;;;;;5118299;28;20533;-55
2021/11/07 12:43:01;;;;;;;;;;;;;;;;;;5111880;27;20023;-56
2021/11/07 12:45:32;;;;;;;4.25;0.93;;;;;;;;;;5120022;28;19899;-57
2021/11/07 12:48:04;;;;;;;8.23;1.60;;;;;;;;;;5119008;28;20028;-56
2021/11/07 12:50:49;;;;;;;4.13;1.10;;;;;;;;;;5118474;28;20469;-53
2021/11/07 12:53:16;;;;;;;5.53;1.05;;;;;;;;;;5118460;28;20064;-52
2021/11/07 12:55:42;;;;;;;1.63;1.00;;;;;;;;;;5118050;28;20028;-53
2021/11/07 12:58:08;;;;;;;2.92;0.95;;;;;;;;;;5119577;28;20031;-50
2021/11/07 13:00:34;;;;;;;2.15;0.70;;;;;;;;;;5118353;28;20341;-53
2021/11/07 13:03:10;;;;;;;2.88;0.85;;;;;;;;;;5119121;28;20011;-54
2021/11/07 13:05:39;;;;;;;1.83;0.68;;;;;;;;;;5118388;28;20023;-54
2021/11/07 13:08:08;;;;;;;3.72;1.02;;;;;;;;;;5118895;28;20015;-50
2021/11/07 13:10:47;;;;;;;2.15;0.75;;;;;;;;;;5118407;27;20065;-53
2021/11/07 13:13:21;;;;;;;4.20;1.00;;;;;;;;;;5117909;27;20051;-53
2021/11/07 13:25:53;;;;;;;1.48;0.68;;;;;;;;;;5114595;28;20084;-53
2021/11/07 13:31:15;;;;;;;2.00;0.70;;;;;;;;;;5114787;28;20030;-61
2021/11/07 13:33:42;;;;;;;2.35;0.68;;;;;;;;;;5114804;28;20064;-59
2021/11/07 13:36:12;;;;;;;1.67;0.77;;;;;;;;;;5115428;28;20054;-57
2021/11/07 13:38:58;;;;;;;3.58;0.82;;;;;;;;;;5096320;28;20027;-58
2021/11/07 13:41:26;;;;;;;1.13;0.60;;;;;;;;;;5113689;27;20030;-48
2021/11/07 13:44:03;;;;;;;0.95;0.80;;;;;;;;;;5114706;28;20741;-57
2021/11/07 13:46:29;;;;;;;1.20;0.60;;;;;;;;;;5115211;28;20020;-59
2021/11/07 13:49:01;;;;;;;1.35;0.50;;;;;;;;;;5114578;28;20028;-54
2021/11/07 13:51:27;;;;;;;;;;;;;;;;;;5115401;28;20402;-54
2021/11/07 13:53:58;;;;;;;0.80;0.47;;;;;;;;;;5114284;28;19904;-57
2021/11/07 13:56:24;;;;;;;3.13;0.60;;;;;;;;;;5115028;28;20039;-55
2021/11/07 13:58:50;;;;;;;4.35;0.50;;;;;;;;;;5114816;27;20023;-54
2021/11/07 14:01:16;;;;;;;1.83;0.77;;;;;;;;;;5115829;28;20088;-55
2021/11/07 14:03:43;;;;;;;1.95;0.63;;;;;;;;;;5115218;28;20023;-54
2021/11/07 14:06:18;;;;;;;0.77;0.60;;;;;;;;;;5114812;28;20020;-56
2021/11/07 14:08:45;;;;;;;1.35;0.65;;;;;;;;;;5114076;28;20027;-55
2021/11/07 14:11:12;;;;;;;1.80;0.70;;;;;;;;;;5115031;28;20350;-56
2021/11/07 14:13:40;;;;;;;3.67;0.60;;;;;;;;;;5134152;27;20106;-55
2021/11/07 14:16:07;;;;;;;3.50;0.70;;;;;;;;;;5135272;27;20019;-54
2021/11/07 14:18:40;;;;;;;2.17;0.98;;;;;;;;;;5135156;27;20359;-54
2021/11/07 14:21:06;;;;;;;3.88;0.63;;;;;;;;;;5134870;27;20452;-57
2021/11/07 14:26:22;;;;;;;0.98;0.50;;;;;;;;;;5114190;28;20027;-59
2021/11/07 14:32:01;;;;;;;2.35;0.50;;;;;;;;;;5081176;28;20023;-59
2021/11/07 14:37:22;;;;;;;2.90;0.52;;;;;;;;;;5113907;28;20126;-60
2021/11/07 14:53:52;;;;;;;1.38;0.90;;;;;;;;;;5113382;28;20349;-59
2021/11/07 14:56:28;;;;;;;1.10;0.50;;;;;;;;;;5113346;28;20027;-59
2021/11/07 15:06:43;;;;;;;0.57;0.57;;;;;;;;;;5113358;28;20024;-60
2021/11/07 15:10:10;;;;;;;0.98;0.57;;;;;;;;;;5113221;28;20031;-60
2021/11/07 15:15:19;;;;;;;0.88;0.70;;;;;;;;;;5133185;27;20054;-60
2021/11/07 15:17:50;;;;;;;1.70;0.47;;;;;;;;;;5132552;27;20019;-60
2021/11/07 15:20:27;;;;;;;1.48;0.60;;;;;;;;;;5133623;27;20106;-60
2021/11/07 15:22:53;;;;;;;2.15;0.80;;;;;;;;;;5117846;27;20039;-60
2021/11/07 15:25:26;;;;;;;0.90;0.60;;;;;;;;;;5113133;28;20027;-60
2021/11/07 15:28:06;;;;;;;0.88;0.57;;;;;;;;;;5112021;28;20082;-60
2021/11/07 15:30:35;;;;;;;1.00;0.50;;;;;;;;;;5115554;27;20026;-60
2021/11/07 15:33:13;;;;;;;1.38;0.65;;;;;;;;;;5122262;27;20023;-60
2021/11/07 15:35:44;;;;;;;0.90;0.63;;;;;;;;;;5092079;28;20151;-60
2021/11/07 15:38:13;;;;;;;0.77;0.65;;;;;;;;;;5092888;28;20028;-60
2021/11/07 15:40:41;;;;;;;0.93;0.68;;;;;;;;;;5103231;28;20020;-60
2021/11/07 15:43:17;;;;;;;1.00;0.50;;;;;;;;;;5091746;28;20027;-60
2021/11/07 15:48:34;;;;;;;3.38;0.73;;;;;;;;;;5098849;28;20062;-60
2021/11/07 15:53:47;;;;;;;0.80;0.60;;;;;;;;;;5092167;28;20024;-60
2021/11/07 15:56:29;;;;;;;1.08;0.60;;;;;;;;;;5091945;28;20080;-60
2021/11/07 16:19:09;;;;;;;0.85;0.50;;;;;;;;;;5112184;28;20028;-60
2021/11/07 16:21:40;;;;;;;1.13;0.60;;;;;;;;;;5108716;28;20076;-60
2021/11/07 16:24:08;;;;;;;0.75;0.50;;;;;;;;;;5091510;28;20054;-60
2021/11/07 16:26:34;;;;;;;0.75;0.52;;;;;;;;;;5091805;28;20020;-60
2021/11/07 16:29:01;;;;;;;1.02;0.52;;;;;;;;;;5089847;28;20028;-60
2021/11/07 16:31:31;;;;;;;0.80;0.70;;;;;;;;;;5091412;28;20508;-60
2021/11/07 16:34:02;;;;;;;0.93;0.50;;;;;;;;;;5090283;28;20030;-60
2021/11/07 16:36:42;;;;;;;1.53;0.70;;;;;;;;;;5105728;28;20093;-59
2021/11/07 16:39:24;;;;;;;0.70;0.50;;;;;;;;;;5111358;28;20102;-60
2021/11/07 16:41:53;;;;;;;1.00;0.50;;;;;;;;;;5115783;28;20011;-60
2021/11/07 16:44:21;;;;;;;0.65;0.50;;;;;;;;;;5132501;28;20364;-60
2021/11/07 16:46:53;;;;;;;0.82;0.50;;;;;;;;;;5131712;28;20364;-60
2021/11/07 16:49:22;;;;;;;1.05;0.50;;;;;;;;;;5114071;28;20045;-60
2021/11/07 16:56:48;;;;;;;0.80;0.63;;;;;;;;;;5135605;27;20038;-60
2021/11/07 17:04:29;;;;;;;0.93;0.60;;;;;;;;;;5136367;27;20034;-59
2021/11/07 17:09:49;;;;;;;;;;;;;;;;;;5136588;27;20031;-60
2021/11/07 17:12:20;;;;;;;1.38;0.70;;;;;;;;;;5135672;27;19903;-59
2021/11/07 17:14:50;;;;;;;0.98;0.70;;;;;;;;;;5116582;27;20016;-60
2021/11/07 17:17:21;;;;;;;4.43;0.93;;;;;;;;;;5135809;27;20027;-59
2021/11/07 17:20:00;;;;;;;2.45;0.73;;;;;;;;;;5135209;27;20022;-60
2021/11/07 17:22:52;;;;;;;1.83;0.80;;;;;;;;;;5125089;27;20012;-60
2021/11/07 17:25:27;;;;;;;;;;;;;;;;;;5115416;28;20464;-60
2021/11/07 17:31:16;;;;;;;1.00;0.73;;;;;;;;;;5096093;28;20440;-60
2021/11/07 17:55:00;;;;;;;1.08;0.73;;;;;;;;;;5113918;28;20367;-65
2021/11/07 17:57:27;;;;;;;4.10;0.98;;;;;;;;;;5114612;28;20023;-59
2021/11/07 17:59:56;;;;;;;1.65;1.17;;;;;;;;;;5113621;28;20024;-60
2021/11/07 18:02:23;;;;;;;4.00;1.25;;;;;;;;;;5114514;28;20060;-60
2021/11/07 18:04:50;;;;;;;1.27;0.70;;;;;;;;;;5112594;28;20441;-60
2021/11/07 18:07:56;;;;;;;2.65;0.60;;;;;;;;;;5114248;28;20031;-61
2021/11/07 18:10:11;;;;;;;;;;;;;;;;;;5110909;28;20372;-61
2021/11/07 18:12:37;;;;;;;4.40;0.85;;;;;;;;;;5118586;27;19903;-59
2021/11/07 18:15:06;;;;;;;10.18;1.00;;;;;;;;;;5133579;27;20011;-60
2021/11/07 18:17:32;;;;;;;2.00;0.70;;;;;;;;;;5134902;27;20062;-62
2021/11/07 18:19:58;;;;;;;4.20;0.95;;;;;;;;;;5133644;27;20154;-60
2021/11/07 18:24:57;;;;;;;6.00;1.05;;;;;;;;;;5113412;28;20069;-60
2021/11/07 18:27:26;;;;;;;3.30;1.10;;;;;;;;;;5113828;28;20484;-61
2021/11/07 18:29:55;;;;;;;2.38;1.08;;;;;;;;;;5113119;28;20115;-62
2021/11/07 18:32:21;;;;;;;2.42;0.80;;;;;;;;;;5114270;28;20011;-62
2021/11/07 18:34:48;;;;;;;1.88;0.85;;;;;;;;;;5113163;28;20357;-64